Time;durP1;ratioP1;P1;durP2;ratioP2;P2;SDS_P1;SDS_P2;PMS_P1;PMS_P2;Temp;Humidity;BMP_temperature;BMP_pressure;BME280_temperature;BME280_humidity;BME280_pressure;Samples;Min_cycle;Max_cycle;Signal;HPM_P1;HPM_P2
2021/12/21 00:00:26;;;;;;;16.20;9.10;;;;;;;-2.47;87.49;102728.06;4955826;28;20023;-72
2021/12/21 00:02:53;;;;;;;18.05;9.88;;;;;;;-2.52;87.71;102725.94;4956810;28;20034;-71
2021/12/21 00:05:21;;;;;;;17.23;8.27;;;;;;;-2.53;87.35;102714.81;4963194;28;20037;-71
2021/12/21 00:07:51;;;;;;;33.25;16.02;;;;;;;-2.52;87.68;102726.81;4954496;28;20054;-71
2021/12/21 00:10:23;;;;;;;24.27;12.60;;;;;;;-2.57;87.43;102715.34;4941365;28;20200;-71
2021/12/21 00:13:22;;;;;;;19.90;8.40;;;;;;;-2.58;87.15;102717.81;4978109;28;20174;-71
2021/12/21 00:15:50;;;;;;;18.90;8.82;;;;;;;-2.63;87.07;102720.03;4958821;28;20038;-72
2021/12/21 00:26:14;;;;;;;25.70;10.88;;;;;;;-2.78;87.03;102713.00;4972104;28;20387;-71
2021/12/21 00:29:02;;;;;;;16.25;10.07;;;;;;;-2.81;86.95;102711.91;4956084;28;20538;-71
2021/12/21 00:31:33;;;;;;;18.88;8.32;;;;;;;-2.89;86.59;102706.19;4969239;28;20030;-71
2021/12/21 00:33:59;;;;;;;19.48;8.90;;;;;;;-2.89;86.86;102702.75;4955969;28;20034;-71
2021/12/21 00:36:29;;;;;;;15.38;9.85;;;;;;;-2.87;87.54;102703.78;4954663;28;20058;-71
2021/12/21 00:38:57;;;;;;;21.83;9.87;;;;;;;-2.88;87.71;102705.41;4954879;28;20450;-72
2021/12/21 00:41:25;;;;;;;17.63;9.82;;;;;;;-2.86;87.98;102697.84;4970817;28;20074;-72
2021/12/21 00:43:50;;;;;;;18.92;8.68;;;;;;;-2.95;87.24;102692.94;4940114;28;20035;-71
2021/12/21 00:46:17;;;;;;;22.75;11.40;;;;;;;-2.96;87.12;102698.81;4937031;28;20089;-71
2021/12/21 00:48:50;;;;;;;15.75;10.98;;;;;;;-3.04;86.91;102689.69;4940010;28;20034;-71
2021/12/21 00:51:17;;;;;;;18.23;8.52;;;;;;;-3.08;87.02;102700.50;4977508;28;20082;-71
2021/12/21 00:53:45;;;;;;;17.65;9.18;;;;;;;-3.09;87.39;102696.16;4954190;28;20043;-71
2021/12/21 00:56:13;;;;;;;23.92;9.43;;;;;;;-3.15;87.16;102694.03;4987586;28;20376;-70
2021/12/21 00:58:39;;;;;;;19.98;9.63;;;;;;;-3.18;87.56;102691.25;4955042;28;20046;-71
2021/12/21 01:01:06;;;;;;;21.13;10.80;;;;;;;-3.20;87.01;102687.69;4979375;28;20057;-71
2021/12/21 01:03:34;;;;;;;28.55;14.50;;;;;;;-3.26;87.26;102692.34;4985356;28;20026;-70
2021/12/21 01:08:31;;;;;;;26.88;13.50;;;;;;;-3.31;87.12;102697.13;4956776;28;20044;-72
2021/12/21 01:16:04;;;;;;;27.80;12.05;;;;;;;-3.37;87.18;102696.69;4967118;28;20122;-72
2021/12/21 01:18:42;;;;;;;28.75;12.60;;;;;;;-3.40;87.79;102699.03;4920474;28;20038;-70
2021/12/21 01:21:16;;;;;;;20.35;12.13;;;;;;;-3.43;87.71;102701.31;4968271;28;20035;-71
2021/12/21 01:31:57;;;;;;;21.13;10.40;;;;;;;-3.50;87.73;102688.06;4940645;28;20050;-71
2021/12/21 01:40:02;;;;;;;26.02;11.38;;;;;;;-3.62;87.18;102689.72;4965785;28;20039;-70
2021/12/21 01:50:38;;;;;;;28.25;10.93;;;;;;;-3.74;87.39;102683.66;4943415;28;20093;-71
2021/12/21 01:53:06;;;;;;;24.25;10.75;;;;;;;-3.77;87.73;102679.16;4970107;28;20046;-71
2021/12/21 01:55:32;;;;;;;20.63;11.02;;;;;;;-3.78;87.62;102681.63;4930747;28;20411;-71
2021/12/21 01:57:57;;;;;;;26.73;11.88;;;;;;;-3.77;88.11;102679.16;4944607;28;20100;-71
2021/12/21 02:00:22;;;;;;;25.35;11.70;;;;;;;-3.77;87.72;102684.28;4952284;28;20038;-71
2021/12/21 02:02:48;;;;;;;25.65;12.32;;;;;;;-3.79;87.92;102684.94;4935082;28;20027;-71
2021/12/21 02:05:13;;;;;;;18.80;11.32;;;;;;;-3.83;87.56;102684.72;4967858;28;20336;-71
2021/12/21 02:07:39;;;;;;;17.85;8.57;;;;;;;-3.86;87.63;102675.91;4938668;28;20031;-71
2021/12/21 02:10:06;;;;;;;17.92;9.82;;;;;;;-3.89;87.53;102668.88;4949268;28;20027;-72
2021/12/21 02:12:32;;;;;;;20.73;9.88;;;;;;;-3.90;87.96;102666.22;4924048;28;20027;-72
2021/12/21 02:15:00;;;;;;;23.05;10.38;;;;;;;-3.90;88.04;102671.34;4967533;28;20510;-70
2021/12/21 02:20:16;;;;;;;20.80;11.65;;;;;;;-3.95;87.77;102665.88;4949049;28;20043;-72
2021/12/21 02:23:09;;;;;;;18.52;10.43;;;;;;;-4.00;87.90;102664.59;4953117;28;20041;-71
2021/12/21 02:30:49;;;;;;;20.35;10.23;;;;;;;-3.98;88.46;102651.91;4928179;28;20039;-72
2021/12/21 02:33:16;;;;;;;23.27;11.20;;;;;;;-3.97;88.74;102653.72;4953241;28;20089;-72
2021/12/21 02:35:42;;;;;;;31.23;10.82;;;;;;;-3.94;89.29;102659.94;4952878;28;20115;-71
2021/12/21 02:38:11;;;;;;;22.52;10.70;;;;;;;-3.90;89.45;102664.53;4951508;28;20042;-72
2021/12/21 02:40:38;;;;;;;20.17;10.75;;;;;;;-3.87;89.27;102666.44;4933493;28;20059;-72
2021/12/21 02:43:05;;;;;;;18.83;11.00;;;;;;;-3.89;89.39;102662.88;4961382;28;20186;-71
2021/12/21 02:45:32;;;;;;;19.95;10.85;;;;;;;-3.92;89.15;102668.66;4953088;28;20074;-71
2021/12/21 02:47:57;;;;;;;16.50;10.35;;;;;;;-3.90;89.62;102661.09;4950792;28;20138;-69
2021/12/21 02:50:23;;;;;;;22.23;11.15;;;;;;;-3.97;89.41;102653.72;4966677;28;20113;-70
2021/12/21 02:52:50;;;;;;;19.13;12.25;;;;;;;-3.99;89.07;102651.03;4966517;28;20046;-70
2021/12/21 02:55:19;;;;;;;26.88;10.52;;;;;;;-3.98;89.17;102650.25;4918660;29;20507;-71
2021/12/21 02:57:44;;;;;;;25.10;9.68;;;;;;;-3.96;89.56;102661.50;4974703;28;20099;-72
2021/12/21 03:00:11;;;;;;;21.38;10.35;;;;;;;-3.94;89.81;102659.06;4952523;28;20049;-71
2021/12/21 03:02:37;;;;;;;35.65;14.60;;;;;;;-3.91;90.16;102649.94;4965523;28;20464;-72
2021/12/21 03:05:03;;;;;;;31.13;12.48;;;;;;;-3.85;90.27;102650.41;4968114;28;20038;-71
2021/12/21 03:10:03;;;;;;;27.83;11.45;;;;;;;-3.86;89.87;102646.06;4960199;28;20042;-71
2021/12/21 03:15:25;;;;;;;15.98;9.88;;;;;;;-3.89;89.30;102648.41;4942521;28;20447;-71
2021/12/21 03:17:51;;;;;;;27.02;11.45;;;;;;;-3.87;89.41;102646.84;4982427;28;20035;-71
2021/12/21 03:20:17;;;;;;;18.75;10.55;;;;;;;-3.84;89.47;102648.75;4951954;28;20034;-72
2021/12/21 03:22:46;;;;;;;22.08;11.07;;;;;;;-3.83;89.49;102647.97;4952709;28;20376;-71
2021/12/21 03:25:12;;;;;;;27.02;13.45;;;;;;;-3.80;89.95;102647.31;4951046;28;20467;-72
2021/12/21 03:27:38;;;;;;;22.98;11.52;;;;;;;-3.79;89.71;102643.97;4953525;28;20093;-71
2021/12/21 03:30:05;;;;;;;25.48;12.25;;;;;;;-3.76;89.61;102633.97;4936518;28;20106;-71
2021/12/21 03:32:31;;;;;;;20.08;10.60;;;;;;;-3.78;89.35;102644.06;4939583;28;20498;-72
2021/12/21 03:34:58;;;;;;;20.25;11.23;;;;;;;-3.79;89.38;102638.84;4930586;28;20070;-71
2021/12/21 03:37:24;;;;;;;26.88;12.63;;;;;;;-3.79;89.70;102633.72;4966199;28;20034;-71
2021/12/21 03:39:52;;;;;;;21.95;11.27;;;;;;;-3.78;89.78;102645.75;4948960;28;20117;-70
2021/12/21 03:42:18;;;;;;;21.80;11.40;;;;;;;-3.80;89.64;102639.63;4954280;28;20426;-71
2021/12/21 03:44:44;;;;;;;22.77;11.63;;;;;;;-3.83;89.40;102638.59;4935140;28;20113;-71
2021/12/21 03:47:11;;;;;;;30.05;12.50;;;;;;;-3.84;89.37;102636.81;4936676;28;20042;-72
2021/12/21 03:52:16;;;;;;;25.48;10.38;;;;;;;-3.86;89.43;102630.69;4967440;28;20471;-71
2021/12/21 03:54:47;;;;;;;24.20;10.60;;;;;;;-3.87;89.51;102631.47;4968213;28;20048;-71
2021/12/21 03:57:14;;;;;;;25.70;11.38;;;;;;;-3.93;88.96;102627.56;4984003;28;20115;-70
2021/12/21 03:59:43;;;;;;;28.02;12.52;;;;;;;-3.95;88.87;102630.00;4981301;28;20543;-71
2021/12/21 04:02:11;;;;;;;26.38;12.15;;;;;;;-3.96;88.62;102641.03;4947023;28;20050;-71
2021/12/21 04:04:38;;;;;;;21.42;10.85;;;;;;;-3.99;88.66;102628.00;4937116;28;20042;-71
2021/12/21 04:07:03;;;;;;;26.67;10.65;;;;;;;-4.01;88.64;102632.09;4945671;28;20038;-70
2021/12/21 04:09:29;;;;;;;18.92;9.98;;;;;;;-4.04;88.91;102631.84;4952133;28;20042;-71
2021/12/21 04:11:54;;;;;;;23.15;10.93;;;;;;;-4.08;88.37;102625.63;4983744;28;20849;-71
2021/12/21 04:14:20;;;;;;;15.93;9.40;;;;;;;-4.11;88.58;102629.59;4934016;28;20353;-72
2021/12/21 04:16:52;;;;;;;18.88;11.25;;;;;;;-4.16;88.21;102626.69;4949178;29;20063;-71
2021/12/21 04:19:18;;;;;;;18.52;10.52;;;;;;;-4.22;87.92;102621.13;4948704;28;20425;-71
2021/12/21 04:21:44;;;;;;;23.02;13.32;;;;;;;-4.16;88.72;102630.94;4960388;28;20513;-70
2021/12/21 04:24:10;;;;;;;25.05;10.75;;;;;;;-4.19;88.99;102621.34;4978156;28;20031;-70
2021/12/21 04:26:35;;;;;;;26.58;11.30;;;;;;;-4.17;89.53;102619.78;4951699;28;20054;-71
2021/12/21 04:29:01;;;;;;;24.63;11.98;;;;;;;-4.12;89.99;102623.59;4967373;28;20039;-70
2021/12/21 04:31:29;;;;;;;31.30;11.88;;;;;;;-4.08;90.03;102628.19;4954171;28;20395;-71
2021/12/21 04:33:58;;;;;;;22.70;11.70;;;;;;;-4.04;90.17;102624.16;4985906;28;20026;-71
2021/12/21 04:36:24;;;;;;;24.15;10.63;;;;;;;-4.03;90.18;102623.41;4923084;28;20502;-70
2021/12/21 04:38:51;;;;;;;28.15;13.88;;;;;;;-3.98;90.60;102627.19;4949645;28;21039;-70
2021/12/21 04:43:45;;;;;;;24.02;11.98;;;;;;;-4.03;90.13;102614.03;4970770;28;20054;-71
2021/12/21 04:46:11;;;;;;;25.35;12.20;;;;;;;-4.06;89.85;102618.06;4954258;28;20035;-71
2021/12/21 04:48:37;;;;;;;25.77;11.10;;;;;;;-4.09;89.52;102618.72;4986983;28;20580;-70
2021/12/21 04:51:05;;;;;;;31.88;11.52;;;;;;;-4.13;89.58;102626.03;4971894;28;20494;-71
2021/12/21 04:53:30;;;;;;;24.10;12.40;;;;;;;-4.18;89.44;102616.34;4949019;28;20106;-70
2021/12/21 04:55:56;;;;;;;27.67;13.05;;;;;;;-4.21;89.54;102613.53;4954604;28;20130;-71
2021/12/21 04:58:24;;;;;;;25.02;14.50;;;;;;;-4.21;89.82;102618.66;4955004;28;20074;-71
2021/12/21 05:00:50;;;;;;;25.13;13.05;;;;;;;-4.23;90.10;102617.63;4936745;28;20060;-71
2021/12/21 05:03:16;;;;;;;20.95;11.35;;;;;;;-4.27;90.41;102609.63;4931582;28;20035;-71
2021/12/21 05:05:41;;;;;;;26.38;11.15;;;;;;;-4.26;89.66;102614.84;4954111;28;20498;-71
2021/12/21 05:10:37;;;;;;;26.75;10.90;;;;;;;-4.32;89.51;102604.16;4972496;28;20122;-71
2021/12/21 05:13:03;;;;;;;24.75;13.15;;;;;;;-4.33;89.00;102601.47;4969576;28;20029;-72
2021/12/21 05:15:28;;;;;;;31.95;12.27;;;;;;;-4.40;89.07;102616.31;4985383;28;20030;-72
2021/12/21 05:17:53;;;;;;;17.92;9.98;;;;;;;-4.42;89.38;102617.00;4973969;28;20109;-72
2021/12/21 05:20:19;;;;;;;22.88;12.73;;;;;;;-4.45;89.31;102606.50;4943679;28;20074;-71
2021/12/21 05:22:47;;;;;;;25.40;12.20;;;;;;;-4.51;89.00;102627.44;4948206;28;20435;-72
2021/12/21 05:25:14;;;;;;;19.58;11.10;;;;;;;-4.57;88.52;102622.72;4960023;28;20031;-72
2021/12/21 05:27:43;;;;;;;23.20;11.75;;;;;;;-4.60;89.09;102621.56;4949470;28;20043;-72
2021/12/21 05:30:10;;;;;;;19.55;12.13;;;;;;;-4.62;88.56;102628.25;4940196;28;20046;-72
2021/12/21 05:32:36;;;;;;;27.33;12.18;;;;;;;-4.66;88.77;102629.66;4964991;28;20061;-72
2021/12/21 05:35:01;;;;;;;21.20;10.95;;;;;;;-4.68;88.95;102633.78;4981324;28;20435;-72
2021/12/21 05:37:27;;;;;;;20.80;10.90;;;;;;;-4.71;88.89;102630.97;4934382;28;20157;-70
2021/12/21 05:40:00;;;;;;;20.70;10.63;;;;;;;-4.78;88.49;102624.47;4938419;28;20513;-70
2021/12/21 05:42:26;;;;;;;26.80;11.95;;;;;;;-4.80;88.21;102620.88;4949707;28;20038;-70
2021/12/21 05:44:54;;;;;;;24.67;11.10;;;;;;;-4.84;88.82;102626.56;4935053;28;20055;-71
2021/12/21 05:47:20;;;;;;;21.58;11.23;;;;;;;-4.85;88.52;102623.88;4981493;28;20066;-70
2021/12/21 05:49:46;;;;;;;26.50;10.57;;;;;;;-4.89;88.31;102633.81;4937350;28;20483;-70
2021/12/21 05:52:12;;;;;;;28.55;11.27;;;;;;;-4.92;88.16;102628.47;4953489;28;20483;-70
2021/12/21 05:54:37;;;;;;;16.23;10.38;;;;;;;-4.96;88.33;102633.22;4945099;28;20110;-70
2021/12/21 05:57:03;;;;;;;26.08;10.63;;;;;;;-4.99;88.23;102633.88;4930971;28;20031;-71
2021/12/21 05:59:29;;;;;;;26.08;11.18;;;;;;;-5.02;88.21;102635.31;4953242;28;20522;-71
2021/12/21 06:01:55;;;;;;;22.70;12.18;;;;;;;-5.00;88.78;102639.75;4975487;28;20046;-70
2021/12/21 06:04:21;;;;;;;24.77;11.07;;;;;;;-5.01;89.35;102631.94;4937903;28;20388;-71
2021/12/21 06:06:47;;;;;;;27.48;12.73;;;;;;;-4.99;88.74;102631.31;4969531;28;20029;-70
2021/12/21 06:09:13;;;;;;;20.45;12.80;;;;;;;-4.99;89.79;102623.63;4969135;28;20030;-70
2021/12/21 06:11:49;;;;;;;26.67;12.35;;;;;;;-4.97;89.60;102618.66;4969232;28;20495;-71
2021/12/21 06:14:50;;;;;;;23.58;11.57;;;;;;;-4.95;89.50;102624.78;4950171;28;20113;-70
2021/12/21 06:27:49;;;;;;;24.77;10.95;;;;;;;-4.94;90.12;102630.03;4981843;28;20439;-70
2021/12/21 06:30:16;;;;;;;23.15;12.38;;;;;;;-4.94;90.36;102634.22;4921194;28;20050;-70
2021/12/21 06:32:42;;;;;;;18.45;10.80;;;;;;;-4.97;90.26;102626.31;4949683;28;20450;-70
2021/12/21 06:35:08;;;;;;;22.75;10.98;;;;;;;-5.01;89.23;102624.28;4972005;28;20030;-71
2021/12/21 06:37:34;;;;;;;26.02;11.70;;;;;;;-5.05;89.40;102626.59;4976805;28;20471;-70
2021/12/21 06:39:59;;;;;;;20.90;11.15;;;;;;;-5.06;89.77;102623.91;4936019;28;20031;-70
2021/12/21 06:42:26;;;;;;;16.25;11.23;;;;;;;-5.09;89.73;102621.13;4977823;28;20037;-70
2021/12/21 06:44:58;;;;;;;20.30;10.73;;;;;;;-5.14;89.63;102623.31;4951777;28;20047;-70
2021/12/21 06:52:52;;;;;;;17.27;10.75;;;;;;;-5.13;89.41;102631.88;4956602;28;20058;-70
2021/12/21 06:55:18;;;;;;;18.50;11.45;;;;;;;-5.12;89.57;102638.78;4966124;28;20031;-69
2021/12/21 06:57:44;;;;;;;21.65;12.35;;;;;;;-5.13;89.45;102636.97;4977029;28;20049;-69
2021/12/21 07:00:14;;;;;;;27.73;12.55;;;;;;;-5.10;90.39;102632.09;4936465;28;20031;-70
2021/12/21 07:02:43;;;;;;;25.15;12.27;;;;;;;-5.07;89.96;102627.25;4968218;28;20478;-70
2021/12/21 07:05:09;;;;;;;24.80;13.20;;;;;;;-5.05;90.55;102631.72;4965176;28;20035;-69
2021/12/21 07:07:35;;;;;;;26.08;12.57;;;;;;;-5.02;90.60;102628.50;4969199;28;20565;-69
2021/12/21 07:10:05;;;;;;;29.25;13.50;;;;;;;-5.02;91.05;102631.06;4953273;28;20113;-69
2021/12/21 07:20:29;;;;;;;19.33;11.57;;;;;;;-4.97;91.14;102629.78;4952884;28;20484;-69
2021/12/21 07:22:55;;;;;;;22.60;12.43;;;;;;;-4.94;91.82;102639.34;4937217;28;20090;-69
2021/12/21 07:25:21;;;;;;;29.02;12.75;;;;;;;-4.93;92.26;102652.28;4950396;28;20337;-69
2021/12/21 07:27:46;;;;;;;25.63;14.55;;;;;;;-4.90;92.55;102639.75;4944383;28;20042;-69
2021/12/21 07:30:14;;;;;;;28.27;15.27;;;;;;;-4.90;92.39;102644.84;4949180;28;20042;-69
2021/12/21 07:32:39;;;;;;;23.48;13.18;;;;;;;-4.90;92.25;102644.84;4958528;28;20039;-69
2021/12/21 07:35:06;;;;;;;26.77;13.20;;;;;;;-4.88;91.85;102645.84;4930684;28;20498;-69
2021/12/21 07:37:31;;;;;;;22.73;14.55;;;;;;;-4.90;91.61;102644.84;4953225;28;20030;-69
2021/12/21 07:39:57;;;;;;;23.50;12.50;;;;;;;-4.93;91.25;102641.13;4953546;28;20062;-69
2021/12/21 07:42:23;;;;;;;18.08;11.27;;;;;;;-4.98;90.54;102638.22;4945281;28;20027;-69
2021/12/21 07:44:49;;;;;;;22.08;9.95;;;;;;;-5.02;90.15;102650.66;4943129;28;20062;-69
2021/12/21 07:47:19;;;;;;;29.00;12.27;;;;;;;-5.05;90.10;102656.41;4965504;28;20034;-70
2021/12/21 07:49:47;;;;;;;24.98;12.30;;;;;;;-5.10;90.35;102658.59;4975784;28;20069;-69
2021/12/21 07:52:14;;;;;;;23.85;12.32;;;;;;;-5.10;89.70;102665.34;4949368;28;20027;-69
2021/12/21 07:54:39;;;;;;;26.48;11.25;;;;;;;-5.11;89.91;102661.91;4950089;28;20026;-69
2021/12/21 07:57:08;;;;;;;21.48;10.63;;;;;;;-5.10;89.71;102652.56;4969675;28;20041;-69
2021/12/21 07:59:35;;;;;;;19.02;10.30;;;;;;;-5.08;89.36;102658.72;4963467;28;20039;-69
2021/12/21 08:02:00;;;;;;;22.80;11.52;;;;;;;-5.07;89.65;102666.50;4957075;28;20110;-69
2021/12/21 08:04:29;;;;;;;21.88;12.07;;;;;;;-5.03;90.01;102659.97;4924516;28;20133;-69
2021/12/21 08:06:58;;;;;;;25.42;13.15;;;;;;;-4.97;89.97;102657.91;4979644;28;20450;-69
2021/12/21 08:09:33;;;;;;;24.15;11.70;;;;;;;-4.90;89.76;102662.75;4940701;28;20117;-69
2021/12/21 08:12:13;;;;;;;19.85;10.77;;;;;;;-4.87;90.23;102670.66;4949019;28;20049;-69
2021/12/21 08:14:39;;;;;;;19.95;12.23;;;;;;;-4.85;89.34;102669.91;4966336;28;20452;-69
2021/12/21 08:17:05;;;;;;;25.17;12.65;;;;;;;-4.82;89.72;102667.59;4957027;28;20380;-69
2021/12/21 08:19:30;;;;;;;26.27;12.00;;;;;;;-4.78;89.46;102661.94;4955843;28;20097;-69
2021/12/21 08:21:55;;;;;;;22.13;12.48;;;;;;;-4.70;89.56;102663.44;4965032;28;20435;-69
2021/12/21 08:24:21;;;;;;;39.45;16.00;;;;;;;-4.61;90.05;102664.19;4939401;28;20077;-69
2021/12/21 08:26:46;;;;;;;29.67;13.93;;;;;;;-4.49;90.15;102653.13;4946105;28;20031;-70
2021/12/21 08:29:12;;;;;;;22.10;11.23;;;;;;;-4.39;90.28;102653.06;4940264;28;20039;-70
2021/12/21 08:31:38;;;;;;;24.63;13.25;;;;;;;-4.32;90.30;102656.97;4952651;28;20093;-69
2021/12/21 08:34:03;;;;;;;22.95;13.55;;;;;;;-4.22;89.92;102657.84;4966332;28;20075;-69
2021/12/21 08:36:28;;;;;;;33.00;13.27;;;;;;;-4.10;90.66;102649.31;4966701;28;20035;-69
2021/12/21 08:38:55;;;;;;;28.90;13.23;;;;;;;-4.02;90.11;102650.81;4952096;28;20121;-69
2021/12/21 08:41:22;;;;;;;20.52;11.98;;;;;;;-3.92;89.96;102663.53;4956350;28;20031;-70
2021/12/21 08:43:48;;;;;;;26.75;12.93;;;;;;;-3.81;90.22;102656.66;4962317;28;20061;-69
2021/12/21 08:46:13;;;;;;;26.65;12.18;;;;;;;-3.74;89.99;102658.03;4932914;28;20039;-70
2021/12/21 08:48:39;;;;;;;22.67;14.07;;;;;;;-3.64;90.00;102664.75;4980893;28;20074;-69
2021/12/21 08:51:05;;;;;;;27.88;12.88;;;;;;;-3.50;90.32;102661.53;4972557;28;20030;-69
2021/12/21 08:53:31;;;;;;;29.52;13.07;;;;;;;-3.37;90.58;102656.53;4953318;28;20019;-70
2021/12/21 08:55:57;;;;;;;33.97;15.00;;;;;;;-3.21;90.35;102658.56;4957080;28;20023;-69
2021/12/21 08:58:23;;;;;;;27.67;15.30;;;;;;;-3.03;90.68;102661.59;4964812;28;20450;-69
2021/12/21 09:00:50;;;;;;;32.58;14.95;;;;;;;-2.81;90.83;102661.47;4945254;28;20567;-70
2021/12/21 09:03:16;;;;;;;31.67;16.88;;;;;;;-2.61;90.93;102669.72;4946885;28;20037;-70
2021/12/21 09:05:41;;;;;;;29.73;15.52;;;;;;;-2.50;90.16;102663.66;4923143;29;20495;-69
2021/12/21 09:08:10;;;;;;;39.95;16.10;;;;;;;-2.30;90.45;102667.63;4949714;28;20487;-70
2021/12/21 09:10:36;;;;;;;27.17;17.23;;;;;;;-2.06;90.52;102664.97;4981102;28;20038;-70
2021/12/21 09:13:02;;;;;;;29.65;17.10;;;;;;;-1.75;90.54;102680.81;4955105;28;20034;-69
2021/12/21 09:15:29;;;;;;;28.92;15.80;;;;;;;-1.42;91.00;102673.59;4948378;28;20030;-69
2021/12/21 09:17:56;;;;;;;33.58;18.60;;;;;;;-1.05;91.86;102678.63;4922009;29;20034;-70
2021/12/21 09:20:24;;;;;;;41.95;19.45;;;;;;;-0.40;91.99;102671.53;4964209;28;20027;-70
2021/12/21 09:22:51;;;;;;;50.13;21.75;;;;;;;1.30;90.58;102664.31;4955659;28;20561;-70
2021/12/21 09:25:17;;;;;;;49.75;25.63;;;;;;;3.67;86.23;102664.16;4950060;28;20447;-70
2021/12/21 09:27:43;;;;;;;31.58;18.05;;;;;;;5.91;75.75;102662.97;4942720;28;20034;-70
2021/12/21 09:30:13;;;;;;;33.85;17.00;;;;;;;7.82;70.83;102655.31;4965204;28;20093;-70
2021/12/21 09:32:39;;;;;;;35.85;16.92;;;;;;;9.41;64.83;102654.16;4964872;28;20101;-70
2021/12/21 09:35:06;;;;;;;24.17;14.20;;;;;;;10.99;57.57;102658.00;4934629;29;20463;-71
2021/12/21 09:37:32;;;;;;;20.27;14.38;;;;;;;12.30;51.30;102656.22;4967426;28;20110;-71
2021/12/21 09:39:58;;;;;;;18.08;12.60;;;;;;;13.45;51.80;102656.25;4956066;28;20041;-71
2021/12/21 09:42:26;;;;;;;26.17;13.10;;;;;;;14.51;48.02;102665.34;4979952;28;20031;-71
2021/12/21 09:44:53;;;;;;;16.38;12.20;;;;;;;15.43;42.18;102656.50;4955446;28;20491;-71
2021/12/21 09:47:18;;;;;;;18.23;12.07;;;;;;;15.96;40.43;102654.56;4947956;28;20039;-71
2021/12/21 09:49:45;;;;;;;25.38;13.55;;;;;;;16.62;40.44;102654.09;4943469;28;20105;-71
2021/12/21 09:52:13;;;;;;;26.17;13.85;;;;;;;17.18;38.29;102650.94;4938527;28;20125;-71
2021/12/21 09:54:41;;;;;;;32.08;14.02;;;;;;;17.34;35.04;102643.72;4954629;28;20145;-72
2021/12/21 09:57:07;;;;;;;29.35;13.95;;;;;;;17.67;36.66;102649.53;4950726;28;20085;-72
2021/12/21 09:59:34;;;;;;;22.77;12.60;;;;;;;18.42;34.51;102644.03;4977572;28;20109;-71
2021/12/21 10:02:02;;;;;;;24.55;13.60;;;;;;;18.95;33.17;102650.28;4955778;28;20037;-71
2021/12/21 10:04:28;;;;;;;26.05;12.27;;;;;;;19.42;30.35;102650.25;4968255;28;20403;-71
2021/12/21 10:06:55;;;;;;;18.20;12.45;;;;;;;19.84;31.78;102650.31;4972491;28;20027;-71
2021/12/21 10:09:31;;;;;;;23.25;13.65;;;;;;;20.22;31.05;102648.53;4951154;28;20158;-72
2021/12/21 10:11:57;;;;;;;24.40;13.55;;;;;;;20.07;28.18;102655.09;4948009;28;20023;-71
2021/12/21 10:14:24;;;;;;;20.13;13.15;;;;;;;19.36;29.79;102640.59;4970876;28;20035;-71
2021/12/21 10:17:05;;;;;;;23.48;14.05;;;;;;;19.48;34.14;102644.81;4939629;28;20499;-71
2021/12/21 10:19:31;;;;;;;25.45;14.32;;;;;;;19.61;30.98;102648.09;4938043;29;20027;-72
2021/12/21 10:22:07;;;;;;;25.20;15.38;;;;;;;20.36;33.25;102636.69;4972052;28;20057;-71
2021/12/21 10:24:32;;;;;;;21.63;14.18;;;;;;;20.80;28.08;102633.84;4968948;28;20027;-71
2021/12/21 10:27:10;;;;;;;19.17;13.10;;;;;;;21.71;32.50;102629.53;4937178;28;20101;-71
2021/12/21 10:29:44;;;;;;;23.17;13.30;;;;;;;22.45;31.09;102621.84;4963290;28;20062;-72
2021/12/21 10:32:20;;;;;;;26.75;12.82;;;;;;;23.37;28.61;102614.19;4955289;28;20026;-72
2021/12/21 10:34:51;;;;;;;21.15;12.40;;;;;;;23.72;26.77;102620.00;4951460;28;20553;-71
2021/12/21 10:37:32;;;;;;;13.85;11.15;;;;;;;24.39;26.93;102619.09;4980397;28;20037;-71
2021/12/21 10:40:27;;;;;;;20.67;11.93;;;;;;;25.25;27.12;102618.94;4987145;28;20056;-71
2021/12/21 10:42:59;;;;;;;15.48;10.95;;;;;;;24.31;24.11;102614.97;4975290;28;20034;-71
2021/12/21 10:45:38;;;;;;;16.00;10.90;;;;;;;24.64;28.07;102615.41;4942303;28;20074;-71
2021/12/21 10:48:06;;;;;;;11.10;9.30;;;;;;;25.04;22.93;102616.31;4949797;28;20113;-71
2021/12/21 10:50:33;;;;;;;13.57;9.43;;;;;;;25.32;21.44;102623.13;4980405;28;20031;-71
2021/12/21 10:53:00;;;;;;;11.32;8.23;;;;;;;25.19;21.00;102622.78;4967286;28;20038;-71
2021/12/21 10:55:32;;;;;;;14.25;9.40;;;;;;;25.13;22.19;102615.03;4962304;28;20439;-71
2021/12/21 10:58:16;;;;;;;17.45;9.10;;;;;;;25.35;23.29;102616.75;4944906;28;20041;-71
2021/12/21 11:00:56;;;;;;;11.43;8.27;;;;;;;24.04;26.68;102612.50;4948698;28;20573;-71
2021/12/21 11:03:30;;;;;;;12.27;8.88;;;;;;;23.68;25.76;102610.34;4960933;28;20114;-71
2021/12/21 11:06:10;;;;;;;21.85;11.40;;;;;;;23.02;27.25;102611.84;4957755;28;20062;-71
2021/12/21 11:08:41;;;;;;;13.75;9.23;;;;;;;23.63;24.12;102613.19;4923337;28;20429;-71
2021/12/21 11:11:11;;;;;;;15.85;8.82;;;;;;;24.62;23.66;102601.16;4944082;28;20505;-71
2021/12/21 11:13:38;;;;;;;13.48;8.27;;;;;;;25.21;21.27;102596.78;4921961;29;20031;-71
2021/12/21 11:16:07;;;;;;;12.25;7.20;;;;;;;25.33;19.98;102600.72;4945414;28;20038;-71
2021/12/21 11:18:37;;;;;;;12.85;7.70;;;;;;;26.41;23.01;102605.41;4966409;28;20058;-71
2021/12/21 11:21:06;;;;;;;14.43;8.80;;;;;;;26.71;19.94;102602.09;4942861;28;20034;-71
2021/12/21 11:23:33;;;;;;;12.23;8.82;;;;;;;27.04;21.30;102599.44;4947198;28;20023;-71
2021/12/21 11:26:02;;;;;;;15.95;7.47;;;;;;;25.63;20.06;102600.22;4955050;28;20026;-71
2021/12/21 11:28:35;;;;;;;19.88;8.43;;;;;;;25.48;21.00;102593.75;4958272;28;20179;-71
2021/12/21 11:31:01;;;;;;;16.10;8.57;;;;;;;25.87;20.89;102584.72;4966616;28;20101;-71
2021/12/21 11:33:30;;;;;;;10.20;7.35;;;;;;;25.86;19.10;102572.25;4934694;29;20435;-71
2021/12/21 11:38:41;;;;;;;23.88;8.35;;;;;;;26.82;19.09;102548.59;4973991;28;20058;-71
2021/12/21 11:41:07;;;;;;;16.77;8.13;;;;;;;26.40;19.11;102550.75;4951636;28;20101;-71
2021/12/21 11:43:40;;;;;;;9.68;7.13;;;;;;;26.68;18.95;102543.06;4965998;28;20134;-71
2021/12/21 11:46:09;;;;;;;9.95;7.15;;;;;;;27.35;18.51;102548.47;4949714;28;20114;-71
2021/12/21 11:48:48;;;;;;;9.75;6.65;;;;;;;27.58;18.81;102549.84;4982292;28;20023;-71
2021/12/21 11:51:14;;;;;;;11.07;6.93;;;;;;;28.15;17.56;102549.25;4954358;28;20039;-71
2021/12/21 11:53:39;;;;;;;10.45;7.15;;;;;;;28.39;16.94;102554.13;4978728;28;20336;-71
2021/12/21 11:56:07;;;;;;;8.75;6.85;;;;;;;28.59;16.67;102555.59;4967972;28;20471;-71
2021/12/21 11:58:41;;;;;;;13.80;6.95;;;;;;;28.88;19.58;102550.25;4970276;28;20070;-71
2021/12/21 12:01:23;;;;;;;15.98;6.45;;;;;;;29.08;18.35;102555.28;4979018;28;20460;-72
2021/12/21 12:04:14;;;;;;;10.20;6.15;;;;;;;28.90;18.25;102546.50;4943201;29;20042;-71
2021/12/21 12:06:47;;;;;;;9.93;5.97;;;;;;;28.79;18.73;102549.00;4970371;28;20037;-72
2021/12/21 12:09:32;;;;;;;8.70;6.30;;;;;;;28.43;18.74;102547.59;4954748;28;20109;-72
2021/12/21 12:12:07;;;;;;;9.57;6.75;;;;;;;28.09;16.80;102538.88;4950052;28;20035;-72
2021/12/21 12:14:35;;;;;;;10.23;6.38;;;;;;;27.90;17.39;102537.22;4976873;28;20476;-72
2021/12/21 12:17:05;;;;;;;7.78;6.22;;;;;;;28.27;16.24;102543.13;4935786;28;20035;-72
2021/12/21 12:19:34;;;;;;;6.30;5.65;;;;;;;28.12;16.22;102534.13;4946133;28;20035;-72
2021/12/21 12:22:00;;;;;;;13.95;6.18;;;;;;;28.25;16.47;102528.88;4980430;28;20026;-71
2021/12/21 12:24:33;;;;;;;8.27;5.82;;;;;;;26.79;18.06;102525.44;4950584;28;20042;-71
2021/12/21 12:27:21;;;;;;;12.40;5.82;;;;;;;24.23;22.10;102531.41;4949463;28;20114;-71
2021/12/21 12:29:53;;;;;;;8.48;5.68;;;;;;;20.32;22.21;102529.41;4953457;28;20061;-71
2021/12/21 12:32:43;;;;;;;10.88;6.28;;;;;;;20.18;24.60;102521.75;4968805;28;20033;-71
2021/12/21 12:35:17;;;;;;;12.15;6.95;;;;;;;21.41;23.87;102528.16;4948105;28;20042;-71
2021/12/21 12:37:48;;;;;;;7.40;6.05;;;;;;;22.63;22.74;102525.97;4946788;28;20037;-71
2021/12/21 12:40:15;;;;;;;13.35;7.82;;;;;;;23.40;22.09;102516.91;4974530;28;20121;-71
2021/12/21 12:42:41;;;;;;;12.05;6.78;;;;;;;23.56;19.12;102522.50;4921273;28;20030;-71